createdAt,value
2018-11-21T03:07:03.522Z,60.85
2018-11-21T03:09:59.877Z,62.70
2018-11-21T03:12:59.379Z,59.73
2018-11-21T03:15:58.012Z,64.07
2018-11-21T03:18:57.300Z,63.15
2018-11-21T03:21:55.889Z,60.30
2018-11-21T03:24:54.728Z,65.45
2018-11-21T03:27:53.550Z,69.12
2018-11-21T03:30:52.664Z,62.78
2018-11-21T03:33:57.715Z,67.25
2018-11-21T03:36:52.295Z,61.50
2018-11-21T03:39:51.438Z,63.30
2018-11-21T03:42:49.896Z,60.03
2018-11-21T03:45:52.815Z,61.83
2018-11-21T03:48:51.396Z,62.48
2018-11-21T03:51:50.411Z,58.85
2018-11-21T03:54:48.741Z,59.38
2018-11-21T03:57:47.533Z,60.65
2018-11-21T04:00:46.057Z,59.25
2018-11-21T04:03:45.061Z,65.90
2018-11-21T04:06:43.576Z,60.25
2018-11-21T04:09:42.230Z,62.35
2018-11-21T04:12:41.465Z,61.33
2018-11-21T04:15:40.154Z,57.43
2018-11-21T04:18:39.291Z,55.63
2018-11-21T04:21:42.336Z,63.00
2018-11-21T04:24:41.293Z,57.93
2018-11-21T04:27:40.134Z,62.03
2018-11-21T04:30:39.108Z,60.48
2018-11-21T04:33:38.105Z,62.15
2018-11-21T04:36:36.792Z,63.30
2018-11-21T04:39:39.533Z,57.48
2018-11-21T04:42:38.349Z,56.88
2018-11-21T04:45:37.226Z,57.33
2018-11-21T04:48:36.490Z,56.05
2018-11-21T04:51:35.358Z,59.90
2018-11-21T04:54:34.359Z,55.80
2018-11-21T04:57:33.112Z,56.83
2018-11-21T05:00:31.870Z,57.13
2018-11-21T05:03:30.717Z,56.75
2018-11-21T05:06:31.038Z,56.08
2018-11-21T05:09:31.599Z,56.63
2018-11-21T05:12:33.704Z,59.88
2018-11-21T05:15:30.270Z,53.90
2018-11-21T05:18:28.769Z,56.23
2018-11-21T05:21:27.821Z,58.20
2018-11-21T05:24:26.285Z,53.73
2018-11-21T05:27:25.113Z,54.58
2018-11-21T05:30:23.928Z,57.20
2018-11-21T05:33:22.496Z,56.20
2018-11-21T05:36:23.676Z,55.15
2018-11-21T05:39:22.083Z,54.13
2018-11-21T05:42:20.153Z,51.80
2018-11-21T05:45:21.065Z,53.73
2018-11-21T05:48:23.724Z,52.62
2018-11-21T05:51:26.519Z,52.85
2018-11-21T05:54:25.604Z,53.02
2018-11-21T05:57:24.747Z,53.30
2018-11-21T06:00:23.066Z,53.28
2018-11-21T06:03:21.794Z,56.28
2018-11-21T06:06:20.886Z,54.18
2018-11-21T06:09:20.524Z,53.15
2018-11-21T06:12:19.637Z,53.15
2018-11-21T06:15:18.682Z,51.50
2018-11-21T06:18:20.544Z,52.53
2018-11-21T06:21:19.224Z,54.15
2018-11-21T06:24:18.316Z,52.08
2018-11-21T06:27:21.024Z,54.65
2018-11-21T06:30:19.876Z,51.92
2018-11-21T06:33:18.671Z,52.00
2018-11-21T06:36:17.853Z,52.27
2018-11-21T06:39:16.937Z,51.70
2018-11-21T06:42:16.072Z,52.10
2018-11-21T06:45:47.697Z,51.68
2018-11-21T06:49:00.985Z,51.42
2018-11-21T06:52:09.613Z,52.88
2018-11-21T06:55:19.597Z,54.85
2018-11-21T06:58:18.575Z,54.50
2018-11-21T07:01:17.194Z,52.45
2018-11-21T07:04:17.156Z,51.35
2018-11-21T07:07:18.976Z,50.23
2018-11-21T07:10:19.666Z,50.43
2018-11-21T07:13:18.237Z,51.85
2018-11-21T07:16:17.442Z,51.77
2018-11-21T07:19:19.695Z,50.17
2018-11-21T07:22:17.997Z,51.83
2018-11-21T07:25:19.998Z,53.35
2018-11-21T07:28:18.539Z,48.90
2018-11-21T07:31:16.846Z,50.35
2018-11-21T07:34:16.929Z,50.40
2018-11-21T07:37:15.873Z,51.25
2018-11-21T07:40:17.510Z,50.90
2018-11-21T07:43:16.457Z,50.05
2018-11-21T07:46:16.221Z,49.05
2018-11-21T07:49:14.895Z,49.83
2018-11-21T07:52:16.899Z,50.40
2018-11-21T07:55:19.139Z,47.65
2018-11-21T07:58:20.229Z,50.08
2018-11-21T08:01:34.598Z,48.33
2018-11-21T08:04:41.526Z,48.58
2018-11-21T08:07:52.922Z,48.60
2018-11-21T08:11:07.879Z,49.15
2018-11-21T08:14:18.027Z,49.85
2018-11-21T08:17:33.287Z,46.68
2018-11-21T08:21:05.007Z,47.50
2018-11-21T08:24:19.514Z,49.73
2018-11-21T08:27:42.097Z,46.98
2018-11-21T08:30:40.292Z,47.93
2018-11-21T08:33:38.864Z,43.87
2018-11-21T08:36:37.553Z,45.63
2018-11-21T08:39:36.202Z,45.05
2018-11-21T08:42:35.436Z,47.15
2018-11-21T08:45:34.740Z,47.27
2018-11-21T08:48:33.449Z,44.15
2018-11-21T08:51:32.517Z,45.23
2018-11-21T08:54:32.011Z,45.83
2018-11-21T08:57:30.633Z,46.68
2018-11-21T09:00:29.225Z,45.88
2018-11-21T09:03:29.113Z,44.73
2018-11-21T09:06:28.283Z,47.30
2018-11-21T09:09:27.220Z,46.18
2018-11-21T09:12:30.606Z,46.05
2018-11-21T09:15:30.195Z,46.92
2018-11-21T09:18:29.268Z,45.73
2018-11-21T09:21:28.431Z,45.58
2018-11-21T09:24:27.340Z,45.03
2018-11-21T09:27:26.342Z,45.17
2018-11-21T09:30:26.558Z,44.95
2018-11-21T09:33:26.557Z,47.45
2018-11-21T09:36:25.687Z,45.78
2018-11-21T09:39:25.536Z,44.20
2018-11-21T09:42:25.315Z,45.40
2018-11-21T09:45:26.061Z,44.70
2018-11-21T09:48:24.930Z,44.93
2018-11-21T09:51:23.961Z,45.25
2018-11-21T09:54:23.266Z,44.45
2018-11-21T09:57:22.310Z,43.48
2018-11-21T10:00:54.334Z,43.83
2018-11-21T10:03:53.127Z,43.87
2018-11-21T10:06:52.423Z,43.90
2018-11-21T10:09:53.285Z,42.88
2018-11-21T10:12:52.141Z,43.58
2018-11-21T10:15:50.613Z,43.15
2018-11-21T10:18:51.936Z,43.60
2018-11-21T10:21:50.873Z,43.23
2018-11-21T10:24:49.796Z,43.83
2018-11-21T10:27:49.134Z,43.20
2018-11-21T10:30:48.157Z,42.95
2018-11-21T10:33:47.236Z,42.83
2018-11-21T10:36:45.991Z,42.48
2018-11-21T10:39:44.981Z,40.10
2018-11-21T10:42:43.831Z,42.78
2018-11-21T10:45:42.850Z,41.58
2018-11-21T10:48:42.158Z,42.90
2018-11-21T10:51:41.165Z,41.20
2018-11-21T10:54:39.964Z,41.70
2018-11-21T10:57:38.982Z,40.50
2018-11-21T11:00:53.080Z,41.37
2018-11-21T11:04:01.527Z,41.92
2018-11-21T11:07:16.243Z,40.28
2018-11-21T11:10:28.292Z,41.35
2018-11-21T11:13:48.847Z,39.67
2018-11-21T11:17:04.781Z,38.90
2018-11-21T11:20:19.101Z,39.73
2018-11-21T11:23:37.128Z,40.00
2018-11-21T11:27:02.105Z,39.70
2018-11-21T11:30:39.531Z,39.30
2018-11-21T11:33:49.747Z,38.35
2018-11-21T11:37:08.976Z,39.60
2018-11-21T11:40:29.002Z,36.85
2018-11-21T11:43:45.061Z,38.13
2018-11-21T11:46:59.530Z,37.40
2018-11-21T11:50:29.347Z,39.23
2018-11-21T11:53:34.189Z,39.25
2018-11-21T11:56:50.747Z,43.28
2018-11-21T12:00:07.177Z,37.50
2018-11-21T12:03:32.942Z,40.50
2018-11-21T12:06:49.182Z,37.75
2018-11-21T12:10:03.358Z,36.93
2018-11-21T12:13:28.783Z,40.45
2018-11-21T12:16:46.133Z,39.58
2018-11-21T12:20:04.675Z,37.40
2018-11-21T12:23:19.534Z,37.42
2018-11-21T12:26:49.529Z,39.58
2018-11-21T12:30:14.987Z,37.80
2018-11-21T12:33:34.334Z,35.98
2018-11-21T12:36:49.345Z,37.90
2018-11-21T12:40:13.588Z,37.67
2018-11-21T12:43:32.902Z,38.88
2018-11-21T12:47:07.272Z,41.05
2018-11-21T12:50:33.467Z,38.45
2018-11-21T12:53:43.059Z,37.70
2018-11-21T12:56:56.971Z,38.75
2018-11-21T13:00:09.729Z,41.23
2018-11-21T13:03:29.653Z,38.28
2018-11-21T13:06:49.291Z,36.68
2018-11-21T13:10:08.374Z,36.53
2018-11-21T13:13:22.213Z,37.35
2018-11-21T13:16:39.255Z,37.73
2018-11-21T13:19:53.582Z,36.10
2018-11-21T13:23:01.504Z,37.83
2018-11-21T13:26:28.782Z,36.33
2018-11-21T13:29:54.179Z,35.08
2018-11-21T13:33:09.666Z,36.10
2018-11-21T13:36:35.000Z,38.85
2018-11-21T13:40:06.693Z,38.20
2018-11-21T13:43:18.570Z,37.88
2018-11-21T13:46:32.378Z,37.05
2018-11-21T13:49:40.141Z,40.63
2018-11-21T13:52:54.195Z,40.05
2018-11-21T13:55:54.191Z,36.60
2018-11-21T13:58:53.644Z,40.43
2018-11-21T14:01:52.316Z,38.88
2018-11-21T14:04:50.928Z,38.45
2018-11-21T14:07:49.892Z,41.75
2018-11-21T14:10:49.082Z,38.85
2018-11-21T14:13:47.770Z,38.02
2018-11-21T14:16:46.526Z,39.33
2018-11-21T14:19:47.900Z,38.40
2018-11-21T14:22:47.522Z,39.53
2018-11-21T14:25:46.187Z,45.15
2018-11-21T14:28:48.821Z,37.33
2018-11-21T14:31:48.476Z,39.08
2018-11-21T14:34:47.142Z,38.28
2018-11-21T14:37:46.767Z,40.20
2018-11-21T14:40:45.884Z,40.85
2018-11-21T14:43:45.254Z,38.85
2018-11-21T14:46:44.290Z,39.85
2018-11-21T14:49:43.502Z,39.18
2018-11-21T14:52:42.394Z,40.43
2018-11-21T14:55:41.005Z,39.65
2018-11-21T14:58:39.950Z,40.67
2018-11-21T15:01:38.955Z,38.38
2018-11-21T15:04:37.582Z,39.92
2018-11-21T15:07:35.869Z,40.73
2018-11-21T15:10:34.850Z,37.67
2018-11-21T15:13:33.897Z,39.33
2018-11-21T15:16:33.184Z,38.98
2018-11-21T15:19:32.393Z,41.35
2018-11-21T15:22:32.760Z,38.08
2018-11-21T15:25:32.122Z,40.03
2018-11-21T15:28:31.446Z,43.30
2018-11-21T15:31:31.211Z,40.90
2018-11-21T15:34:30.128Z,45.45
2018-11-21T15:37:29.672Z,42.30
2018-11-21T15:40:29.776Z,41.20
2018-11-21T15:43:28.874Z,45.38
2018-11-21T15:46:29.073Z,42.17
2018-11-21T15:49:28.883Z,49.30
2018-11-21T15:52:28.463Z,42.98
2018-11-21T15:55:28.629Z,42.48
2018-11-21T15:58:28.116Z,46.13
2018-11-21T16:01:27.552Z,43.23
2018-11-21T16:04:26.903Z,45.63
2018-11-21T16:07:26.559Z,44.58
2018-11-21T16:10:28.413Z,42.62
2018-11-21T16:13:28.141Z,42.20
2018-11-21T16:16:28.801Z,44.48
2018-11-21T16:19:27.904Z,43.63
2018-11-21T16:22:29.207Z,49.33
2018-11-21T16:25:32.450Z,46.15
2018-11-21T16:28:38.090Z,43.15
2018-11-21T16:31:35.035Z,43.30
2018-11-21T16:34:33.190Z,43.75
2018-11-21T16:37:31.694Z,47.62
2018-11-21T16:40:31.916Z,44.23
2018-11-21T16:43:30.769Z,47.33
2018-11-21T16:46:30.086Z,46.68
2018-11-21T16:49:29.139Z,44.40
2018-11-21T16:52:28.258Z,43.45
2018-11-21T16:55:29.143Z,42.50
2018-11-21T16:58:28.008Z,44.77
2018-11-21T17:01:27.460Z,44.25
2018-11-21T17:04:26.568Z,43.40
2018-11-21T17:07:26.052Z,46.35
2018-11-21T17:10:26.256Z,42.80
2018-11-21T17:13:25.437Z,45.40
2018-11-21T17:16:24.204Z,51.77
2018-11-21T17:19:23.189Z,47.00
2018-11-21T17:22:22.365Z,48.98
2018-11-21T17:25:23.896Z,44.83
2018-11-21T17:28:22.828Z,48.42
